Time;durP1;ratioP1;P1;durP2;ratioP2;P2;SDS_P1;SDS_P2;PMS_P1;PMS_P2;Temp;Humidity;BMP_temperature;BMP_pressure;BME280_temperature;BME280_humidity;BME280_pressure;Samples;Min_cycle;Max_cycle;Signal;HPM_P1;HPM_P2
2022/06/12 00:01:01;;;;;;;9.50;3.78;;;;;;;16.58;76.14;93728.53;5105632;28;20095;-86
2022/06/12 00:03:28;;;;;;;9.35;3.75;;;;;;;16.59;76.99;93726.63;5105390;28;20028;-85
2022/06/12 00:05:56;;;;;;;7.47;3.53;;;;;;;16.53;77.84;93730.75;5105287;28;20328;-86
2022/06/12 00:08:23;;;;;;;8.48;5.07;;;;;;;16.49;78.23;93722.59;5087270;28;20068;-86
2022/06/12 00:10:50;;;;;;;6.03;4.78;;;;;;;16.53;78.29;93723.44;5105515;28;20040;-87
2022/06/12 00:13:20;;;;;;;8.10;4.60;;;;;;;16.55;78.89;93723.09;5105494;28;20020;-87
2022/06/12 00:15:47;;;;;;;7.43;4.82;;;;;;;16.55;79.86;93726.56;5105574;28;20024;-84
2022/06/12 00:18:12;;;;;;;8.05;4.65;;;;;;;16.53;79.38;93720.75;5104322;28;20019;-80
2022/06/12 00:20:38;;;;;;;6.00;4.50;;;;;;;16.51;79.66;93714.16;5105128;28;20016;-82
2022/06/12 00:23:09;;;;;;;6.22;4.63;;;;;;;16.50;80.10;93713.38;5105354;28;20215;-81
2022/06/12 00:25:35;;;;;;;5.72;4.30;;;;;;;16.45;79.98;93710.97;5105432;28;20096;-81
2022/06/12 00:28:01;;;;;;;9.10;5.47;;;;;;;16.42;80.14;93709.78;5104854;28;20020;-81
2022/06/12 00:30:27;;;;;;;8.07;4.75;;;;;;;16.40;80.59;93703.16;5104852;28;20028;-81
2022/06/12 00:32:54;;;;;;;6.85;4.70;;;;;;;16.40;80.54;93716.63;5104855;28;20031;-82
2022/06/12 00:35:27;;;;;;;8.07;4.68;;;;;;;16.37;81.09;93704.66;5104794;28;20027;-87
2022/06/12 00:37:53;;;;;;;9.40;5.55;;;;;;;16.35;81.38;93706.94;5104862;28;20020;-86
2022/06/12 00:40:20;;;;;;;10.02;5.13;;;;;;;16.34;81.20;93715.34;5104913;28;20085;-86
2022/06/12 00:42:52;;;;;;;9.15;5.40;;;;;;;16.29;81.54;93707.56;5104594;28;20023;-86
2022/06/12 00:45:32;;;;;;;;;;;;;;;16.20;82.11;93715.81;5105122;28;20044;-84
2022/06/12 00:48:01;;;;;;;11.55;5.32;;;;;;;16.11;82.22;93710.66;5104783;28;19916;-85
2022/06/12 00:50:27;;;;;;;7.45;4.60;;;;;;;16.14;81.98;93707.28;5104530;28;20020;-85
2022/06/12 00:52:54;;;;;;;8.55;5.07;;;;;;;16.08;82.27;93714.06;5104468;28;20039;-84
2022/06/12 00:55:26;;;;;;;7.05;4.97;;;;;;;16.13;82.24;93711.06;5104324;28;20028;-85
2022/06/12 00:57:56;;;;;;;6.43;4.83;;;;;;;16.19;82.55;93711.59;5086246;28;20039;-85
2022/06/12 01:00:22;;;;;;;7.30;5.13;;;;;;;16.16;82.42;93702.31;5104547;28;20016;-85
2022/06/12 01:02:48;;;;;;;7.60;4.93;;;;;;;16.16;82.35;93715.75;5104222;28;20023;-85
2022/06/12 01:08:05;;;;;;;8.80;5.35;;;;;;;16.11;83.09;93697.19;5104327;28;20056;-84
2022/06/12 01:10:32;;;;;;;12.48;5.53;;;;;;;16.11;82.89;93691.81;5104130;28;20016;-84
2022/06/12 01:13:04;;;;;;;6.82;5.28;;;;;;;16.05;83.20;93696.69;5104305;28;20019;-84
2022/06/12 01:15:36;;;;;;;8.55;5.03;;;;;;;16.06;83.41;93708.25;5104336;28;20222;-84
2022/06/12 01:18:06;;;;;;;8.65;5.18;;;;;;;16.02;83.10;93702.78;5104362;28;20226;-84
2022/06/12 01:20:57;;;;;;;8.20;5.65;;;;;;;15.93;83.69;93704.09;5103945;28;20024;-84
2022/06/12 01:23:48;;;;;;;6.90;4.78;;;;;;;15.96;83.41;93692.66;5074941;28;20222;-85
2022/06/12 01:26:38;;;;;;;7.03;5.10;;;;;;;15.95;83.68;93693.78;5103725;28;20041;-84
2022/06/12 01:29:21;;;;;;;9.18;4.85;;;;;;;15.85;83.73;93684.34;5103599;28;20019;-84
2022/06/12 01:32:06;;;;;;;7.00;4.72;;;;;;;15.73;83.93;93687.91;5085058;28;20379;-84
2022/06/12 01:35:03;;;;;;;6.57;4.45;;;;;;;15.61;84.41;93674.56;5103149;28;20030;-84
2022/06/12 01:37:54;;;;;;;6.80;4.53;;;;;;;15.61;83.70;93677.25;5103111;28;20050;-84
2022/06/12 01:40:28;;;;;;;7.00;4.88;;;;;;;15.65;83.83;93675.41;5103018;28;20019;-83
2022/06/12 01:43:20;;;;;;;5.88;4.70;;;;;;;15.71;84.10;93671.34;5103044;28;20043;-84
2022/06/12 01:46:04;;;;;;;6.95;4.70;;;;;;;15.78;83.90;93679.59;5103143;28;20165;-84
2022/06/12 01:48:41;;;;;;;6.90;4.70;;;;;;;15.81;83.97;93672.75;5103026;28;20042;-84
2022/06/12 01:51:21;;;;;;;10.00;5.10;;;;;;;15.84;82.98;93683.56;5103137;28;20035;-84
2022/06/12 01:53:54;;;;;;;5.82;4.43;;;;;;;15.89;81.92;93677.13;5103075;28;20192;-83
2022/06/12 01:56:31;;;;;;;6.82;4.65;;;;;;;15.89;81.94;93681.75;5102931;28;20341;-83
2022/06/12 01:59:09;;;;;;;6.57;4.60;;;;;;;15.97;81.57;93673.47;5103011;28;20050;-83
2022/06/12 02:01:47;;;;;;;7.50;4.65;;;;;;;16.07;81.68;93685.59;5103168;28;20199;-82
2022/06/12 02:04:33;;;;;;;4.50;3.58;;;;;;;16.02;79.64;93683.19;5102900;28;20076;-82
2022/06/12 02:07:06;;;;;;;5.15;3.72;;;;;;;16.05;79.71;93685.94;5102938;28;20016;-82
2022/06/12 02:09:43;;;;;;;7.63;3.95;;;;;;;16.04;80.70;93692.47;5102632;28;20069;-82
2022/06/12 02:15:16;;;;;;;4.93;4.25;;;;;;;16.10;80.97;93694.84;5102913;28;20031;-83
2022/06/12 02:17:52;;;;;;;6.57;4.80;;;;;;;16.09;80.77;93686.03;5103015;28;20091;-83
2022/06/12 02:20:20;;;;;;;8.88;4.32;;;;;;;16.11;81.37;93689.13;5085274;28;20069;-83
2022/06/12 02:22:48;;;;;;;6.95;4.68;;;;;;;16.11;80.75;93686.44;5103325;28;20218;-83
2022/06/12 02:25:19;;;;;;;6.63;3.70;;;;;;;16.05;80.10;93677.88;5103201;28;20065;-83
2022/06/12 02:27:56;;;;;;;12.48;4.40;;;;;;;16.05;80.48;93675.19;5102755;28;20035;-84
2022/06/12 02:30:26;;;;;;;8.18;5.10;;;;;;;16.08;80.73;93679.09;5102672;28;20028;-82
2022/06/12 02:33:01;;;;;;;9.18;4.65;;;;;;;16.07;80.25;93674.84;5102710;28;20046;-82
2022/06/12 02:36:10;;;;;;;7.45;4.20;;;;;;;16.08;80.39;93679.09;5102957;28;20043;-82
2022/06/12 02:39:05;;;;;;;6.60;4.30;;;;;;;16.09;80.45;93679.88;5092139;28;20028;-84
2022/06/12 02:41:44;;;;;;;8.85;4.82;;;;;;;16.02;80.40;93675.13;5086706;28;20032;-85
2022/06/12 02:44:29;;;;;;;16.63;6.63;;;;;;;15.97;81.18;93683.44;5106580;28;20047;-83
2022/06/12 02:47:05;;;;;;;6.28;5.03;;;;;;;15.94;81.19;93684.16;5106693;28;20325;-84
2022/06/12 02:49:31;;;;;;;6.85;4.78;;;;;;;15.89;81.10;93677.13;5106668;28;20092;-85
2022/06/12 02:52:14;;;;;;;6.32;4.38;;;;;;;15.89;81.09;93695.19;5106636;28;20070;-84
2022/06/12 02:54:58;;;;;;;9.07;5.05;;;;;;;15.88;81.92;93685.56;5106833;28;20024;-82
2022/06/12 02:57:31;;;;;;;9.40;4.82;;;;;;;15.88;82.52;93686.34;5106723;28;20027;-83
2022/06/12 03:00:03;;;;;;;9.45;4.90;;;;;;;15.88;81.71;93699.00;5106810;28;20024;-82
2022/06/12 03:02:29;;;;;;;11.00;4.78;;;;;;;15.85;81.65;93697.78;5106574;28;20069;-82
2022/06/12 03:05:19;;;;;;;7.20;5.13;;;;;;;15.86;81.98;93695.91;5106575;28;20309;-83
2022/06/12 03:07:45;;;;;;;6.50;4.97;;;;;;;15.86;82.15;93701.28;5088447;28;20024;-83
2022/06/12 03:10:15;;;;;;;6.72;4.50;;;;;;;15.83;81.94;93686.59;5106380;28;20035;-83
2022/06/12 03:12:41;;;;;;;10.90;5.10;;;;;;;15.83;82.29;93708.91;5106630;28;20082;-83
2022/06/12 03:15:27;;;;;;;10.05;4.78;;;;;;;15.84;82.27;93698.94;5106137;28;20085;-82
2022/06/12 03:17:52;;;;;;;12.82;4.63;;;;;;;15.83;82.23;93689.28;5106634;28;20024;-83
2022/06/12 03:20:18;;;;;;;10.30;5.15;;;;;;;15.77;82.44;93691.50;5106936;28;20027;-82
2022/06/12 03:22:57;;;;;;;6.93;5.30;;;;;;;15.79;82.38;93696.50;5112638;28;20019;-81
2022/06/12 03:25:31;;;;;;;6.15;4.80;;;;;;;15.71;82.50;93695.50;5109981;28;20031;-80
2022/06/12 03:28:03;;;;;;;9.10;5.15;;;;;;;15.72;82.48;93688.25;5107856;28;20024;-80
2022/06/12 03:30:34;;;;;;;8.52;5.28;;;;;;;15.73;82.49;93687.13;5088772;28;20035;-80
2022/06/12 03:33:05;;;;;;;11.07;5.32;;;;;;;15.76;82.73;93700.66;5106213;28;20028;-82
2022/06/12 03:35:52;;;;;;;9.48;5.40;;;;;;;15.77;82.63;93693.38;5105757;28;20023;-82
2022/06/12 03:38:45;;;;;;;7.60;5.45;;;;;;;15.80;82.60;93690.00;5105442;28;20031;-82
2022/06/12 03:41:35;;;;;;;7.18;5.03;;;;;;;15.86;82.06;93685.16;5106503;28;20028;-82
2022/06/12 03:44:12;;;;;;;7.15;5.20;;;;;;;15.88;81.71;93691.72;5105960;28;20039;-81
2022/06/12 03:46:54;;;;;;;6.50;5.03;;;;;;;15.91;81.61;93698.28;5105816;28;20036;-82
2022/06/12 03:49:26;;;;;;;7.55;5.35;;;;;;;15.88;81.43;93691.72;5105753;28;20050;-82
2022/06/12 03:52:14;;;;;;;7.05;5.28;;;;;;;15.91;81.56;93687.53;5105420;28;20035;-82
2022/06/12 03:54:50;;;;;;;9.02;5.05;;;;;;;15.91;82.08;93687.53;5105697;28;20046;-82
2022/06/12 04:00:42;;;;;;;8.73;5.15;;;;;;;15.91;81.65;93698.28;5105581;28;20065;-82
2022/06/12 04:03:22;;;;;;;7.30;5.35;;;;;;;15.96;82.06;93693.44;5101757;28;20333;-83
2022/06/12 04:05:53;;;;;;;9.18;5.45;;;;;;;15.94;82.06;93697.59;5105073;28;20020;-83
2022/06/12 04:08:27;;;;;;;7.68;5.65;;;;;;;15.93;81.68;93702.19;5105217;28;20061;-83
2022/06/12 04:10:54;;;;;;;8.85;5.97;;;;;;;15.88;82.57;93699.00;5105171;28;20020;-82
2022/06/12 04:13:22;;;;;;;8.63;6.45;;;;;;;15.88;83.29;93691.72;5105111;28;20023;-85
2022/06/12 04:15:56;;;;;;;12.07;7.25;;;;;;;15.81;82.31;93700.41;5105213;28;20024;-85
2022/06/12 04:18:24;;;;;;;7.70;5.47;;;;;;;15.81;82.33;93695.03;5086738;28;20103;-81
2022/06/12 04:21:20;;;;;;;9.25;6.20;;;;;;;15.80;83.01;93701.53;5105189;28;20052;-81
2022/06/12 04:23:50;;;;;;;8.45;5.90;;;;;;;15.80;82.56;93714.19;5104881;28;20311;-81
2022/06/12 04:26:39;;;;;;;9.30;6.00;;;;;;;15.74;83.08;93707.53;5104842;28;20046;-82
2022/06/12 04:29:10;;;;;;;8.70;7.05;;;;;;;15.81;83.58;93718.41;5104826;28;20058;-82
2022/06/12 04:31:36;;;;;;;8.77;6.45;;;;;;;15.81;83.37;93711.16;5104537;28;20222;-82
2022/06/12 04:34:25;;;;;;;10.82;6.43;;;;;;;15.88;83.46;93715.13;5104604;28;20031;-82
2022/06/12 04:36:54;;;;;;;11.48;7.72;;;;;;;15.87;83.73;93718.94;5104899;28;20024;-82
2022/06/12 04:39:26;;;;;;;16.60;7.75;;;;;;;15.90;83.25;93718.25;5104430;28;20028;-85
2022/06/12 04:41:51;;;;;;;14.70;7.53;;;;;;;15.89;83.15;93722.06;5104648;28;20100;-86
2022/06/12 04:44:18;;;;;;;10.38;6.97;;;;;;;15.89;83.58;93716.69;5104179;28;20043;-84
2022/06/12 04:46:46;;;;;;;8.10;6.45;;;;;;;15.90;83.18;93719.03;5104670;28;20081;-83
2022/06/12 04:49:19;;;;;;;9.95;6.78;;;;;;;15.91;83.20;93717.09;5104600;28;20062;-85
2022/06/12 04:51:45;;;;;;;8.63;6.93;;;;;;;15.88;82.21;93721.28;5104589;28;20039;-85
2022/06/12 04:54:11;;;;;;;8.20;6.45;;;;;;;15.97;82.15;93724.53;5104611;28;20035;-85
2022/06/12 04:56:37;;;;;;;8.52;6.70;;;;;;;16.02;81.29;93721.59;5086380;28;20027;-85
2022/06/12 04:59:05;;;;;;;9.90;5.95;;;;;;;16.05;81.15;93725.50;5104407;28;20012;-88
2022/06/12 05:01:32;;;;;;;12.15;5.82;;;;;;;16.08;81.00;93734.75;5104360;28;20094;-85
2022/06/12 05:03:59;;;;;;;8.07;5.68;;;;;;;16.08;81.26;93732.88;5103761;28;20337;-86
2022/06/12 05:06:25;;;;;;;11.48;7.47;;;;;;;16.14;80.90;93734.16;5086217;28;20020;-86
2022/06/12 05:08:52;;;;;;;10.43;6.45;;;;;;;16.13;80.77;93735.28;5085932;28;20023;-85
2022/06/12 05:11:18;;;;;;;9.57;7.00;;;;;;;16.22;81.47;93733.19;5104178;28;20102;-84
2022/06/12 05:13:44;;;;;;;9.15;6.22;;;;;;;16.25;80.67;93729.78;5104228;28;20311;-84
2022/06/12 05:16:28;;;;;;;9.52;5.85;;;;;;;16.38;80.62;93740.41;5085738;28;20103;-84
2022/06/12 05:18:55;;;;;;;8.70;6.32;;;;;;;16.51;80.46;93744.53;5103879;28;20079;-84
2022/06/12 05:21:21;;;;;;;8.35;5.70;;;;;;;16.62;80.49;93737.44;5103820;28;20208;-84
2022/06/12 05:23:47;;;;;;;7.28;5.38;;;;;;;16.70;79.21;93742.97;5104132;28;20070;-84
2022/06/12 05:26:15;;;;;;;7.60;5.25;;;;;;;16.69;77.32;93734.13;5104334;28;20024;-83
2022/06/12 05:28:41;;;;;;;12.88;6.28;;;;;;;16.76;77.81;93733.50;5104310;28;20094;-84
2022/06/12 05:31:07;;;;;;;6.43;5.05;;;;;;;16.84;77.93;93737.91;5104021;28;20318;-85
2022/06/12 05:33:32;;;;;;;8.68;5.97;;;;;;;16.89;77.87;93732.22;5104173;28;20024;-86
2022/06/12 05:35:57;;;;;;;7.20;5.88;;;;;;;17.01;77.21;93734.75;5103764;28;20016;-86
2022/06/12 05:38:24;;;;;;;6.78;5.32;;;;;;;17.02;77.18;93732.88;5103879;28;20051;-86
2022/06/12 05:40:49;;;;;;;10.93;5.93;;;;;;;16.97;77.34;93725.06;5103588;28;20016;-85
2022/06/12 05:43:15;;;;;;;11.25;5.15;;;;;;;17.04;76.50;93736.75;5103657;28;20028;-83
2022/06/12 05:45:40;;;;;;;11.43;5.45;;;;;;;16.96;75.86;93735.06;5103398;28;20027;-81
2022/06/12 05:48:15;;;;;;;7.43;4.97;;;;;;;17.09;75.54;93737.59;5103639;28;20040;-82
2022/06/12 05:50:48;;;;;;;10.75;5.60;;;;;;;17.17;76.09;93747.38;5099159;28;20046;-81
2022/06/12 05:53:14;;;;;;;7.60;5.40;;;;;;;17.22;75.24;93739.00;5103623;28;20024;-80
2022/06/12 05:55:41;;;;;;;7.85;5.28;;;;;;;17.19;75.99;93737.00;5103646;28;20024;-82
2022/06/12 05:58:07;;;;;;;7.78;5.40;;;;;;;17.24;75.85;93742.13;5103248;28;20016;-81
2022/06/12 06:00:33;;;;;;;9.18;5.30;;;;;;;17.27;76.38;93749.47;5103494;28;20366;-81
2022/06/12 06:02:59;;;;;;;7.57;5.22;;;;;;;17.19;76.13;93737.78;5103472;28;20016;-85
2022/06/12 06:05:25;;;;;;;10.00;5.53;;;;;;;17.22;76.97;93749.78;5103307;28;20049;-86
2022/06/12 06:07:51;;;;;;;8.27;5.88;;;;;;;17.35;76.86;93753.84;5103402;28;20020;-85
2022/06/12 06:10:26;;;;;;;8.27;5.65;;;;;;;17.36;76.09;93760.00;5103648;28;20031;-85
2022/06/12 06:12:53;;;;;;;7.68;5.78;;;;;;;17.38;76.79;93755.84;5103252;28;20267;-83
2022/06/12 06:15:19;;;;;;;9.43;6.13;;;;;;;17.40;77.11;93755.47;5103366;28;20222;-73
2022/06/12 06:17:45;;;;;;;10.27;6.82;;;;;;;17.40;77.33;93761.66;5106640;28;20024;-72
2022/06/12 06:20:14;;;;;;;8.85;6.72;;;;;;;17.42;77.08;93764.75;5106778;28;20103;-72
2022/06/12 06:22:39;;;;;;;7.35;5.82;;;;;;;17.36;77.63;93768.88;5106588;28;20024;-71
2022/06/12 06:25:05;;;;;;;8.23;6.10;;;;;;;17.46;77.64;93770.19;5106650;28;20345;-72
2022/06/12 06:27:31;;;;;;;6.88;5.45;;;;;;;17.39;76.72;93768.16;5106445;28;20070;-70
2022/06/12 06:29:56;;;;;;;7.65;5.45;;;;;;;17.42;76.20;93770.16;5106386;28;20200;-71
2022/06/12 06:32:22;;;;;;;8.10;5.78;;;;;;;17.47;76.75;93787.16;5106440;28;20039;-71
2022/06/12 06:34:48;;;;;;;7.55;5.80;;;;;;;17.44;76.53;93781.34;5106338;28;20028;-71
2022/06/12 06:37:13;;;;;;;10.30;5.68;;;;;;;17.38;76.43;93782.78;5106465;28;20043;-71
2022/06/12 06:39:40;;;;;;;7.32;5.38;;;;;;;17.32;75.85;93786.09;5106281;28;20229;-71
2022/06/12 06:42:10;;;;;;;7.35;5.82;;;;;;;17.22;76.95;93784.78;5106328;28;20031;-71
2022/06/12 06:47:21;;;;;;;7.88;5.70;;;;;;;17.33;78.07;93788.44;5106282;28;20073;-71
2022/06/12 06:49:47;;;;;;;11.90;5.97;;;;;;;17.33;77.30;93793.84;5106137;28;20012;-71
2022/06/12 06:52:12;;;;;;;7.47;6.13;;;;;;;17.37;77.37;93791.97;5106051;28;20027;-71
2022/06/12 06:54:38;;;;;;;7.43;5.68;;;;;;;17.33;77.39;93801.13;5106116;28;20337;-71
2022/06/12 06:57:05;;;;;;;8.13;6.70;;;;;;;17.44;78.11;93802.09;5106138;28;20091;-71
2022/06/12 06:59:31;;;;;;;13.90;6.22;;;;;;;17.48;78.29;93802.16;5105786;28;20023;-71
2022/06/12 07:01:56;;;;;;;7.35;5.85;;;;;;;17.52;77.33;93803.00;5106010;28;20019;-71
2022/06/12 07:04:22;;;;;;;10.85;6.65;;;;;;;17.58;77.15;93807.75;5105943;28;20048;-71
2022/06/12 07:06:47;;;;;;;8.27;6.97;;;;;;;17.65;78.24;93799.78;5105931;28;20024;-71
2022/06/12 07:09:13;;;;;;;8.90;6.43;;;;;;;17.70;77.59;93798.72;5106040;28;20191;-70
2022/06/12 07:11:38;;;;;;;8.13;5.93;;;;;;;17.76;77.48;93796.50;5105680;28;20035;-70
2022/06/12 07:14:04;;;;;;;9.88;6.45;;;;;;;17.86;76.13;93806.72;5105528;28;20026;-70
2022/06/12 07:16:31;;;;;;;12.02;5.72;;;;;;;17.88;74.13;93803.66;5105862;28;20104;-71
2022/06/12 07:18:56;;;;;;;8.07;5.50;;;;;;;17.89;74.14;93795.22;5105343;28;20024;-71
2022/06/12 07:21:22;;;;;;;7.22;5.10;;;;;;;17.88;74.06;93800.97;5105492;28;20211;-71
2022/06/12 07:23:48;;;;;;;7.22;5.30;;;;;;;17.94;74.41;93802.22;5105514;28;20023;-71
2022/06/12 07:26:28;;;;;;;9.75;5.50;;;;;;;18.00;74.57;93801.53;5106812;28;20263;-90
2022/06/12 07:28:54;;;;;;;8.52;6.03;;;;;;;18.03;75.20;93808.94;5106724;28;20031;-89
2022/06/12 07:31:21;;;;;;;6.47;5.38;;;;;;;18.06;74.73;93809.34;5106953;28;20028;-92
2022/06/12 07:33:47;;;;;;;6.43;5.65;;;;;;;18.12;76.17;93802.50;5107444;28;20032;-90
2022/06/12 07:36:14;;;;;;;8.27;5.22;;;;;;;18.15;74.58;93807.94;5107827;28;20085;-92
2022/06/12 07:38:41;;;;;;;10.27;5.78;;;;;;;18.17;74.24;93804.88;5107563;28;20043;-93
2022/06/12 07:41:11;;;;;;;9.50;5.60;;;;;;;18.20;74.80;93804.94;5107254;28;20028;-93
2022/06/12 07:43:38;;;;;;;7.10;5.65;;;;;;;18.28;75.09;93810.44;5089116;28;20292;-92
2022/06/12 07:46:11;;;;;;;7.28;5.82;;;;;;;18.33;74.29;93818.22;5106949;28;20028;-93
2022/06/12 07:48:38;;;;;;;6.60;5.22;;;;;;;18.44;74.80;93808.38;5107088;28;20024;-92
2022/06/12 07:51:07;;;;;;;7.70;6.05;;;;;;;18.47;74.56;93813.03;5106317;28;20024;-92
2022/06/12 07:53:34;;;;;;;9.40;6.43;;;;;;;18.59;74.50;93818.22;5088337;28;20054;-91
2022/06/12 07:56:01;;;;;;;7.03;5.70;;;;;;;18.68;74.25;93817.19;5106142;28;20024;-92
2022/06/12 07:58:27;;;;;;;6.32;5.03;;;;;;;18.74;72.38;93815.72;5106221;28;20044;-92
2022/06/12 08:01:01;;;;;;;9.13;6.20;;;;;;;18.75;73.14;93811.88;5106571;28;20024;-93
2022/06/12 08:03:31;;;;;;;7.00;5.88;;;;;;;18.84;73.77;93820.50;5106329;28;20054;-93
2022/06/12 08:06:04;;;;;;;8.10;4.90;;;;;;;19.03;73.03;93817.69;5106214;28;20034;-93
2022/06/12 08:08:30;;;;;;;7.18;4.70;;;;;;;19.14;71.14;93825.91;5088384;28;20028;-92
2022/06/12 08:11:01;;;;;;;5.18;4.22;;;;;;;19.19;70.49;93819.38;5106245;28;20032;-93
2022/06/12 08:13:27;;;;;;;6.28;4.95;;;;;;;19.26;69.67;93822.19;5106191;28;20032;-93
2022/06/12 08:15:53;;;;;;;8.20;5.65;;;;;;;19.39;71.06;93817.28;5105994;28;20046;-92
2022/06/12 08:18:20;;;;;;;6.35;4.88;;;;;;;19.53;71.76;93827.50;5106041;28;20043;-94
2022/06/12 08:20:49;;;;;;;11.35;5.97;;;;;;;19.54;71.60;93829.03;5088226;28;20196;-93
2022/06/12 08:23:26;;;;;;;5.28;4.07;;;;;;;19.64;70.08;93820.25;5105874;28;20050;-94
2022/06/12 08:25:59;;;;;;;5.22;3.78;;;;;;;19.72;67.73;93826.53;5105923;28;20119;-94
2022/06/12 08:29:03;;;;;;;9.77;4.30;;;;;;;19.75;66.65;93832.00;5105961;28;20043;-95
2022/06/12 08:31:52;;;;;;;10.27;4.10;;;;;;;19.71;66.22;93825.78;5107391;28;20086;-94
2022/06/12 08:34:32;;;;;;;10.63;4.95;;;;;;;19.81;67.48;93829.72;5087355;28;20036;-94
2022/06/12 08:37:01;;;;;;;7.25;3.88;;;;;;;19.84;67.50;93840.59;5087389;28;20210;-92
2022/06/12 08:39:27;;;;;;;7.57;4.28;;;;;;;19.84;70.21;93837.09;5104660;28;20016;-94
2022/06/12 08:42:08;;;;;;;8.20;4.55;;;;;;;19.84;69.25;93840.59;5105809;28;20069;-94
2022/06/12 08:44:43;;;;;;;5.95;4.13;;;;;;;19.81;70.51;93838.63;5104964;28;20040;-92
2022/06/12 08:47:16;;;;;;;11.60;4.97;;;;;;;19.91;70.54;93836.41;5087414;28;20106;-90
2022/06/12 08:50:09;;;;;;;7.22;4.47;;;;;;;20.06;70.77;93842.69;5105050;28;20086;-93
2022/06/12 08:52:46;;;;;;;5.97;4.57;;;;;;;20.15;68.58;93838.53;5105367;28;20032;-92
2022/06/12 08:55:31;;;;;;;15.80;4.88;;;;;;;20.27;69.39;93836.69;5086874;28;20024;-93
2022/06/12 08:58:24;;;;;;;8.13;4.68;;;;;;;20.32;68.77;93833.63;5087271;28;20326;-92
2022/06/12 09:00:49;;;;;;;6.35;4.18;;;;;;;20.07;66.40;93839.63;5105059;28;20027;-93
2022/06/12 09:03:19;;;;;;;7.63;4.35;;;;;;;19.88;65.89;93835.19;5105154;28;20019;-91
2022/06/12 09:05:59;;;;;;;5.13;4.00;;;;;;;19.70;67.62;93836.91;5102779;28;20023;-93
2022/06/12 09:08:35;;;;;;;5.07;3.70;;;;;;;19.59;67.54;93847.63;5085260;28;20058;-88
2022/06/12 09:11:12;;;;;;;7.03;4.10;;;;;;;19.57;68.91;93839.13;5103036;28;20219;-88
2022/06/12 09:14:12;;;;;;;4.65;3.50;;;;;;;19.41;70.57;93848.19;5102780;28;20054;-85
2022/06/12 09:16:54;;;;;;;6.53;3.95;;;;;;;19.40;71.84;93838.56;5103181;28;20028;-87
2022/06/12 09:19:52;;;;;;;7.60;3.83;;;;;;;19.38;71.15;93846.25;5103194;28;20310;-88
2022/06/12 09:22:27;;;;;;;4.28;3.22;;;;;;;19.07;67.06;93841.25;5101855;28;20024;-86
2022/06/12 09:25:13;;;;;;;5.45;3.55;;;;;;;18.98;69.21;93849.63;5102123;28;20043;-88
2022/06/12 09:27:45;;;;;;;5.20;3.60;;;;;;;18.96;68.74;93844.59;5103221;28;20252;-88
2022/06/12 09:30:17;;;;;;;4.88;2.88;;;;;;;19.03;67.72;93844.69;5103585;28;20094;-88
2022/06/12 09:33:13;;;;;;;5.57;4.10;;;;;;;19.10;69.79;93848.63;5101727;28;20222;-88
2022/06/12 09:35:54;;;;;;;7.15;3.50;;;;;;;19.22;70.27;93849.16;5101554;28;20054;-88
2022/06/12 09:38:39;;;;;;;6.32;3.60;;;;;;;19.37;68.66;93857.44;5101938;28;20019;-88
2022/06/12 09:41:12;;;;;;;9.27;4.82;;;;;;;19.48;70.85;93862.94;5101544;28;20045;-88
2022/06/12 09:44:06;;;;;;;6.22;4.45;;;;;;;19.56;71.50;93857.25;5101818;28;20064;-88
2022/06/12 09:46:37;;;;;;;11.20;3.83;;;;;;;19.68;68.62;93858.13;5100441;28;20095;-85
2022/06/12 09:49:10;;;;;;;6.90;4.50;;;;;;;19.75;70.10;93860.97;5084028;28;20410;-85
2022/06/12 09:51:54;;;;;;;6.18;3.80;;;;;;;19.78;70.37;93849.38;5101720;28;20091;-87
2022/06/12 09:55:05;;;;;;;7.30;3.95;;;;;;;19.83;70.87;93852.53;5101633;28;20031;-86
2022/06/12 09:57:39;;;;;;;5.20;3.80;;;;;;;19.82;70.92;93850.19;5103019;28;20086;-86
2022/06/12 10:00:37;;;;;;;11.02;3.40;;;;;;;19.78;68.92;93849.38;5103282;28;20027;-87
2022/06/12 10:03:29;;;;;;;4.75;3.30;;;;;;;19.72;66.45;93848.97;5103337;28;20242;-87
2022/06/12 10:06:07;;;;;;;5.83;3.27;;;;;;;19.76;69.99;93852.50;5103666;28;20026;-87
2022/06/12 10:08:49;;;;;;;4.63;3.40;;;;;;;19.61;67.56;93850.75;5103570;28;20032;-86
2022/06/12 10:11:29;;;;;;;6.18;3.53;;;;;;;19.57;66.99;93844.53;5103324;28;20020;-87
2022/06/12 10:14:02;;;;;;;5.57;3.72;;;;;;;19.41;69.43;93848.19;5104129;28;20028;-87
2022/06/12 10:16:43;;;;;;;5.05;2.70;;;;;;;19.15;65.65;93840.97;5103454;28;20065;-87
2022/06/12 10:19:08;;;;;;;6.07;3.25;;;;;;;19.16;69.03;93836.34;5103525;28;20188;-87
2022/06/12 10:21:37;;;;;;;5.70;3.08;;;;;;;19.06;67.02;93835.06;5103437;28;20023;-86
2022/06/12 10:24:03;;;;;;;6.82;3.35;;;;;;;19.10;68.97;93838.59;5103290;28;20311;-87
2022/06/12 10:26:31;;;;;;;5.05;3.75;;;;;;;19.16;69.16;93839.81;5103320;28;20024;-87
2022/06/12 10:29:05;;;;;;;6.53;3.53;;;;;;;19.27;70.61;93837.22;5085368;28;20031;-87
2022/06/12 10:31:34;;;;;;;5.55;3.22;;;;;;;19.39;67.07;93845.09;5085292;28;20031;-87
2022/06/12 10:34:19;;;;;;;5.32;3.70;;;;;;;19.44;65.19;93847.47;5103683;28;20019;-87
2022/06/12 10:36:44;;;;;;;7.25;4.28;;;;;;;19.65;66.14;93846.91;5103324;28;20020;-87
2022/06/12 10:39:20;;;;;;;4.65;3.10;;;;;;;19.75;64.84;93837.41;5103514;28;20087;-86
2022/06/12 10:41:55;;;;;;;4.32;3.20;;;;;;;19.79;63.49;93832.81;5103446;28;20040;-86
2022/06/12 10:44:54;;;;;;;9.35;3.65;;;;;;;19.82;65.72;93833.97;5103198;28;20050;-85
2022/06/12 10:47:32;;;;;;;6.50;3.20;;;;;;;19.87;67.36;93832.88;5095865;28;20062;-87
2022/06/12 10:50:19;;;;;;;8.40;3.20;;;;;;;19.93;65.84;93832.16;5102821;28;20199;-87
2022/06/12 10:53:14;;;;;;;4.63;3.25;;;;;;;19.94;64.70;93827.53;5103027;28;20024;-87
2022/06/12 10:56:01;;;;;;;5.43;3.75;;;;;;;19.98;66.56;93831.03;5102782;28;20031;-88
2022/06/12 10:58:33;;;;;;;5.40;3.45;;;;;;;20.00;62.40;93828.72;5084784;28;20027;-87
2022/06/12 11:01:09;;;;;;;5.13;3.15;;;;;;;20.28;63.66;93838.25;5102898;28;20016;-87
2022/06/12 11:03:47;;;;;;;6.38;3.15;;;;;;;20.53;64.00;93836.47;5087798;28;20046;-87
2022/06/12 11:06:21;;;;;;;8.75;3.60;;;;;;;20.63;62.01;93835.03;5106267;28;20095;-86
2022/06/12 11:09:14;;;;;;;3.78;2.95;;;;;;;20.68;62.32;93828.47;5088033;28;20024;-86
2022/06/12 11:12:04;;;;;;;8.43;3.20;;;;;;;20.91;66.49;93826.31;5105833;28;20087;-86
2022/06/12 11:14:53;;;;;;;8.95;3.40;;;;;;;21.28;61.81;93827.25;5088056;28;20063;-86
2022/06/12 11:17:48;;;;;;;5.57;2.72;;;;;;;21.52;59.53;93825.81;5106130;28;20073;-86
2022/06/12 11:20:52;;;;;;;3.90;2.65;;;;;;;21.71;58.64;93833.59;5106226;28;20019;-87
2022/06/12 11:23:36;;;;;;;3.63;2.70;;;;;;;21.94;58.06;93819.69;5087938;28;20165;-86
2022/06/12 11:26:25;;;;;;;6.95;2.88;;;;;;;22.14;56.44;93820.06;5106143;28;20024;-87
2022/06/12 11:28:56;;;;;;;5.30;3.17;;;;;;;22.10;56.44;93827.44;5106151;28;20031;-88
2022/06/12 11:31:34;;;;;;;5.75;3.00;;;;;;;22.13;55.75;93823.94;5105788;28;20020;-87
2022/06/12 11:33:59;;;;;;;6.90;3.25;;;;;;;22.24;56.78;93826.69;5105984;28;20030;-87
2022/06/12 11:36:54;;;;;;;4.57;2.60;;;;;;;22.50;55.45;93827.47;5105720;28;20028;-87
2022/06/12 11:39:36;;;;;;;5.63;2.97;;;;;;;22.58;53.26;93829.78;5073582;28;20036;-87
2022/06/12 11:42:37;;;;;;;6.93;3.17;;;;;;;22.72;53.99;93820.06;5105650;28;20016;-87
2022/06/12 11:45:05;;;;;;;10.23;3.47;;;;;;;22.78;58.97;93818.50;5094354;28;20047;-87
2022/06/12 11:47:37;;;;;;;7.35;3.13;;;;;;;22.66;56.53;93818.91;5105743;28;20028;-87
2022/06/12 11:50:45;;;;;;;7.60;3.47;;;;;;;22.63;55.49;93815.00;5105599;28;20031;-88
2022/06/12 11:53:30;;;;;;;6.25;3.30;;;;;;;22.43;57.43;93811.97;5105285;28;20023;-87
2022/06/12 11:56:33;;;;;;;8.07;3.70;;;;;;;22.46;56.47;93813.88;5105677;28;20028;-87
2022/06/12 11:59:05;;;;;;;6.35;3.15;;;;;;;22.60;56.70;93799.50;5092821;28;20318;-88
2022/06/12 12:01:38;;;;;;;5.85;3.30;;;;;;;22.60;55.55;93799.50;5105519;28;20390;-89
2022/06/12 12:04:10;;;;;;;5.57;3.45;;;;;;;22.56;57.26;93802.22;5105261;28;20230;-88
2022/06/12 12:06:47;;;;;;;6.13;3.50;;;;;;;22.49;56.96;93793.31;5105344;28;20031;-87
2022/06/12 12:09:19;;;;;;;5.43;3.13;;;;;;;22.50;55.35;93803.03;5105093;28;20040;-86
2022/06/12 12:12:01;;;;;;;6.40;2.83;;;;;;;22.45;55.52;93806.91;5086842;28;20069;-87
2022/06/12 12:14:33;;;;;;;4.55;2.90;;;;;;;22.38;59.13;93807.69;5103805;28;20102;-85
2022/06/12 12:17:03;;;;;;;;;;;;;;;22.25;58.68;93803.81;5105715;28;20035;-85